sensor_id;sensor_type;location;lat;lon;timestamp;pressure;altitude;pressure_sealevel;temperature;humidity
49102;BME280;34913;47.520;19.186;2023-09-12T00:01:18;99689.09;;;17.99;83.28
49102;BME280;34913;47.520;19.186;2023-09-12T00:03:44;99691.34;;;17.96;83.33
49102;BME280;34913;47.520;19.186;2023-09-12T00:06:09;99679.94;;;17.94;83.90
49102;BME280;34913;47.520;19.186;2023-09-12T00:08:35;99679.94;;;17.94;84.24
49102;BME280;34913;47.520;19.186;2023-09-12T00:11:05;99685.47;;;17.92;84.42
49102;BME280;34913;47.520;19.186;2023-09-12T00:13:32;99685.47;;;17.92;84.70
49102;BME280;34913;47.520;19.186;2023-09-12T00:15:58;99681.50;;;17.88;84.16
49102;BME280;34913;47.520;19.186;2023-09-12T00:18:23;99679.84;;;17.87;85.00
49102;BME280;34913;47.520;19.186;2023-09-12T00:20:50;99676.66;;;17.83;84.58
49102;BME280;34913;47.520;19.186;2023-09-12T00:23:16;99678.53;;;17.83;84.74
49102;BME280;34913;47.520;19.186;2023-09-12T00:25:41;99680.56;;;17.81;85.01
49102;BME280;34913;47.520;19.186;2023-09-12T00:28:07;99675.56;;;17.78;84.51
49102;BME280;34913;47.520;19.186;2023-09-12T00:30:32;99678.28;;;17.70;85.14
49102;BME280;34913;47.520;19.186;2023-09-12T00:32:58;99679.34;;;17.61;85.94
49102;BME280;34913;47.520;19.186;2023-09-12T00:35:23;99677.84;;;17.58;86.32
49102;BME280;34913;47.520;19.186;2023-09-12T00:37:49;99680.91;;;17.55;86.54
49102;BME280;34913;47.520;19.186;2023-09-12T00:40:14;99688.28;;;17.53;87.14
49102;BME280;34913;47.520;19.186;2023-09-12T00:42:39;99677.22;;;17.56;86.93
49102;BME280;34913;47.520;19.186;2023-09-12T00:45:06;99686.09;;;17.56;86.89
49102;BME280;34913;47.520;19.186;2023-09-12T00:47:32;99683.59;;;17.55;86.68
49102;BME280;34913;47.520;19.186;2023-09-12T00:49:59;99681.63;;;17.49;87.21
49102;BME280;34913;47.520;19.186;2023-09-12T00:52:26;99679.94;;;17.48;87.46
49102;BME280;34913;47.520;19.186;2023-09-12T00:54:54;99683.47;;;17.48;87.87
49102;BME280;34913;47.520;19.186;2023-09-12T00:57:21;99682.31;;;17.43;87.73
49102;BME280;34913;47.520;19.186;2023-09-12T00:59:47;99677.97;;;17.42;87.95
49102;BME280;34913;47.520;19.186;2023-09-12T01:02:13;99680.00;;;17.40;87.97
49102;BME280;34913;47.520;19.186;2023-09-12T01:04:38;99674.09;;;17.44;87.97
49102;BME280;34913;47.520;19.186;2023-09-12T01:07:04;99677.97;;;17.42;87.96
49102;BME280;34913;47.520;19.186;2023-09-12T01:09:31;99677.97;;;17.42;88.03
49102;BME280;34913;47.520;19.186;2023-09-12T01:11:57;99676.31;;;17.41;87.94
49102;BME280;34913;47.520;19.186;2023-09-12T01:14:22;99680.47;;;17.43;88.64
49102;BME280;34913;47.520;19.186;2023-09-12T01:16:48;99682.50;;;17.41;88.34
49102;BME280;34913;47.520;19.186;2023-09-12T01:19:15;99686.41;;;17.39;88.89
49102;BME280;34913;47.520;19.186;2023-09-12T01:21:54;99680.72;;;17.34;89.01
49102;BME280;34913;47.520;19.186;2023-09-12T01:27:34;99678.03;;;17.34;89.17
49102;BME280;34913;47.520;19.186;2023-09-12T01:30:05;99681.19;;;17.37;89.13
49102;BME280;34913;47.520;19.186;2023-09-12T01:32:32;99680.06;;;17.32;89.77
49102;BME280;34913;47.520;19.186;2023-09-12T01:34:59;99673.38;;;17.27;89.93
49102;BME280;34913;47.520;19.186;2023-09-12T01:37:24;99679.09;;;17.24;89.62
49102;BME280;34913;47.520;19.186;2023-09-12T01:39:51;99673.56;;;17.26;89.35
49102;BME280;34913;47.520;19.186;2023-09-12T01:42:20;99679.56;;;17.28;89.41
49102;BME280;34913;47.520;19.186;2023-09-12T01:44:47;99675.53;;;17.32;88.90
49102;BME280;34913;47.520;19.186;2023-09-12T01:47:15;99667.22;;;17.19;88.96
49102;BME280;34913;47.520;19.186;2023-09-12T01:49:44;99673.97;;;17.15;89.07
49102;BME280;34913;47.520;19.186;2023-09-12T01:52:11;99677.66;;;17.14;88.74
49102;BME280;34913;47.520;19.186;2023-09-12T01:54:38;99676.34;;;17.10;89.17
49102;BME280;34913;47.520;19.186;2023-09-12T01:57:04;99679.22;;;17.08;89.57
49102;BME280;34913;47.520;19.186;2023-09-12T01:59:29;99680.75;;;17.02;89.59
49102;BME280;34913;47.520;19.186;2023-09-12T02:01:55;99674.72;;;17.00;89.45
49102;BME280;34913;47.520;19.186;2023-09-12T02:04:20;99673.06;;;16.99;90.31
49102;BME280;34913;47.520;19.186;2023-09-12T02:06:46;99671.53;;;16.97;89.89
49102;BME280;34913;47.520;19.186;2023-09-12T02:09:11;99672.38;;;16.97;89.81
49102;BME280;34913;47.520;19.186;2023-09-12T02:11:37;99672.56;;;16.96;90.34
49102;BME280;34913;47.520;19.186;2023-09-12T02:14:02;99675.75;;;16.99;90.66
49102;BME280;34913;47.520;19.186;2023-09-12T02:16:29;99677.44;;;16.92;89.80
49102;BME280;34913;47.520;19.186;2023-09-12T02:18:54;99677.97;;;16.88;89.98
49102;BME280;34913;47.520;19.186;2023-09-12T02:21:20;99676.66;;;16.84;90.20
49102;BME280;34913;47.520;19.186;2023-09-12T02:23:45;99678.69;;;16.73;90.33
49102;BME280;34913;47.520;19.186;2023-09-12T02:26:11;99678.03;;;16.71;91.33
49102;BME280;34913;47.520;19.186;2023-09-12T02:28:36;99681.53;;;16.72;91.10
49102;BME280;34913;47.520;19.186;2023-09-12T02:31:02;99686.72;;;16.65;91.51
49102;BME280;34913;47.520;19.186;2023-09-12T02:33:27;99681.75;;;16.54;92.38
49102;BME280;34913;47.520;19.186;2023-09-12T02:35:53;99686.78;;;16.49;93.50
49102;BME280;34913;47.520;19.186;2023-09-12T02:38:18;99685.78;;;16.50;93.92
49102;BME280;34913;47.520;19.186;2023-09-12T02:40:44;99691.63;;;16.54;93.68
49102;BME280;34913;47.520;19.186;2023-09-12T02:43:09;99681.41;;;16.57;93.73
49102;BME280;34913;47.520;19.186;2023-09-12T02:45:35;99684.41;;;16.62;93.66
49102;BME280;34913;47.520;19.186;2023-09-12T02:48:00;99681.38;;;16.65;93.43
49102;BME280;34913;47.520;19.186;2023-09-12T02:50:26;99682.88;;;16.68;93.95
49102;BME280;34913;47.520;19.186;2023-09-12T02:52:53;99677.53;;;16.68;93.87
49102;BME280;34913;47.520;19.186;2023-09-12T02:55:18;99675.88;;;16.67;93.99
49102;BME280;34913;47.520;19.186;2023-09-12T02:57:44;99682.88;;;16.68;94.07
49102;BME280;34913;47.520;19.186;2023-09-12T03:00:09;99679.69;;;16.64;93.19
49102;BME280;34913;47.520;19.186;2023-09-12T03:02:36;99688.94;;;16.62;93.88
49102;BME280;34913;47.520;19.186;2023-09-12T03:05:02;99690.28;;;16.58;94.05
49102;BME280;34913;47.520;19.186;2023-09-12T03:07:29;99687.13;;;16.54;94.19
49102;BME280;34913;47.520;19.186;2023-09-12T03:09:54;99685.28;;;16.55;94.25
49102;BME280;34913;47.520;19.186;2023-09-12T03:12:20;99682.41;;;16.56;94.41
49102;BME280;34913;47.520;19.186;2023-09-12T03:14:45;99686.09;;;16.55;94.69
49102;BME280;34913;47.520;19.186;2023-09-12T03:17:10;99690.16;;;16.51;94.29
49102;BME280;34913;47.520;19.186;2023-09-12T03:19:36;99691.97;;;16.51;94.57
49102;BME280;34913;47.520;19.186;2023-09-12T03:22:01;99691.31;;;16.48;95.45
49102;BME280;34913;47.520;19.186;2023-09-12T03:24:27;99686.50;;;16.44;95.81
49102;BME280;34913;47.520;19.186;2023-09-12T03:26:54;99691.66;;;16.45;95.75
49102;BME280;34913;47.520;19.186;2023-09-12T03:29:19;99688.81;;;16.47;95.77
49102;BME280;34913;47.520;19.186;2023-09-12T03:31:45;99683.97;;;16.42;95.13
49102;BME280;34913;47.520;19.186;2023-09-12T03:34:10;99686.63;;;16.42;95.76
49102;BME280;34913;47.520;19.186;2023-09-12T03:36:36;99687.81;;;16.40;95.70
49102;BME280;34913;47.520;19.186;2023-09-12T03:39:01;99689.50;;;16.41;95.38
49102;BME280;34913;47.520;19.186;2023-09-12T03:41:28;99689.66;;;16.39;95.42
49102;BME280;34913;47.520;19.186;2023-09-12T03:43:53;99682.31;;;16.33;95.94
49102;BME280;34913;47.520;19.186;2023-09-12T03:46:20;99689.50;;;16.33;96.53
49102;BME280;34913;47.520;19.186;2023-09-12T03:48:45;99693.56;;;16.29;97.03
49102;BME280;34913;47.520;19.186;2023-09-12T03:51:11;99703.44;;;16.28;96.71
49102;BME280;34913;47.520;19.186;2023-09-12T03:53:36;99699.56;;;16.31;96.56
49102;BME280;34913;47.520;19.186;2023-09-12T03:56:02;99705.75;;;16.31;96.83
49102;BME280;34913;47.520;19.186;2023-09-12T03:58:27;99706.25;;;16.27;96.16
49102;BME280;34913;47.520;19.186;2023-09-12T04:00:53;99700.59;;;16.22;96.10
49102;BME280;34913;47.520;19.186;2023-09-12T04:03:18;99698.09;;;16.20;96.25
49102;BME280;34913;47.520;19.186;2023-09-12T04:05:46;99705.59;;;16.25;96.05
49102;BME280;34913;47.520;19.186;2023-09-12T04:08:12;99707.09;;;16.27;95.37
49102;BME280;34913;47.520;19.186;2023-09-12T04:10:38;99705.25;;;16.36;94.84
49102;BME280;34913;47.520;19.186;2023-09-12T04:13:03;99702.56;;;16.44;93.83
49102;BME280;34913;47.520;19.186;2023-09-12T04:15:29;99702.56;;;16.44;93.05
49102;BME280;34913;47.520;19.186;2023-09-12T04:17:54;99697.03;;;16.37;93.49
49102;BME280;34913;47.520;19.186;2023-09-12T04:20:19;99701.56;;;16.37;93.50
49102;BME280;34913;47.520;19.186;2023-09-12T04:22:45;99705.75;;;16.31;93.09
49102;BME280;34913;47.520;19.186;2023-09-12T04:25:10;99704.78;;;16.24;93.53
49102;BME280;34913;47.520;19.186;2023-09-12T04:27:36;99711.97;;;16.15;93.63
49102;BME280;34913;47.520;19.186;2023-09-12T04:30:01;99701.94;;;16.09;94.32
49102;BME280;34913;47.520;19.186;2023-09-12T04:32:27;99713.31;;;16.11;94.95
49102;BME280;34913;47.520;19.186;2023-09-12T04:34:52;99701.75;;;16.11;94.98
49102;BME280;34913;47.520;19.186;2023-09-12T04:37:18;99714.00;;;16.22;94.46
49102;BME280;34913;47.520;19.186;2023-09-12T04:39:44;99712.78;;;16.32;94.26
49102;BME280;34913;47.520;19.186;2023-09-12T04:42:10;99721.16;;;16.29;93.54
49102;BME280;34913;47.520;19.186;2023-09-12T04:44:40;99718.34;;;16.23;94.57
49102;BME280;34913;47.520;19.186;2023-09-12T04:47:06;99715.66;;;16.14;95.36
49102;BME280;34913;47.520;19.186;2023-09-12T04:49:31;99711.81;;;16.09;95.35
49102;BME280;34913;47.520;19.186;2023-09-12T04:51:57;99721.50;;;16.10;95.64
49102;BME280;34913;47.520;19.186;2023-09-12T04:54:22;99716.84;;;16.12;96.10
49102;BME280;34913;47.520;19.186;2023-09-12T04:56:48;99714.84;;;16.14;96.25
49102;BME280;34913;47.520;19.186;2023-09-12T04:59:13;99717.66;;;16.21;96.75
49102;BME280;34913;47.520;19.186;2023-09-12T05:01:38;99720.16;;;16.30;96.99
49102;BME280;34913;47.520;19.186;2023-09-12T05:04:07;99731.34;;;16.42;97.04
49102;BME280;34913;47.520;19.186;2023-09-12T05:06:32;99729.34;;;16.44;96.82
49102;BME280;34913;47.520;19.186;2023-09-12T05:08:58;99731.31;;;16.50;97.88
49102;BME280;34913;47.520;19.186;2023-09-12T05:11:23;99731.84;;;16.54;98.39
49102;BME280;34913;47.520;19.186;2023-09-12T05:13:49;99730.81;;;16.55;98.69
49102;BME280;34913;47.520;19.186;2023-09-12T05:16:15;99734.81;;;16.59;98.87
49102;BME280;34913;47.520;19.186;2023-09-12T05:18:40;99733.47;;;16.63;98.97
49102;BME280;34913;47.520;19.186;2023-09-12T05:21:06;99727.28;;;16.70;98.00
49102;BME280;34913;47.520;19.186;2023-09-12T05:23:31;99733.97;;;16.83;97.73
49102;BME280;34913;47.520;19.186;2023-09-12T05:25:57;99736.44;;;16.92;98.71
49102;BME280;34913;47.520;19.186;2023-09-12T05:28:22;99724.66;;;17.01;98.66
49102;BME280;34913;47.520;19.186;2023-09-12T05:30:48;99740.19;;;17.14;98.30
49102;BME280;34913;47.520;19.186;2023-09-12T05:33:17;99734.94;;;17.21;98.44
49102;BME280;34913;47.520;19.186;2023-09-12T05:35:42;99729.38;;;17.30;98.20
49102;BME280;34913;47.520;19.186;2023-09-12T05:38:09;99738.97;;;17.48;97.63
49102;BME280;34913;47.520;19.186;2023-09-12T05:40:35;99738.69;;;17.66;96.54
49102;BME280;34913;47.520;19.186;2023-09-12T05:43:00;99747.97;;;17.86;95.33
49102;BME280;34913;47.520;19.186;2023-09-12T05:45:26;99741.91;;;18.07;94.53
49102;BME280;34913;47.520;19.186;2023-09-12T05:47:52;99749.09;;;18.29;93.04
49102;BME280;34913;47.520;19.186;2023-09-12T05:50:17;99748.31;;;18.58;90.82
49102;BME280;34913;47.520;19.186;2023-09-12T05:52:42;99748.91;;;18.98;87.45
49102;BME280;34913;47.520;19.186;2023-09-12T05:55:08;99751.22;;;19.52;83.78
49102;BME280;34913;47.520;19.186;2023-09-12T05:57:34;99763.31;;;19.99;81.48
49102;BME280;34913;47.520;19.186;2023-09-12T05:59:59;99753.94;;;20.44;76.57
49102;BME280;34913;47.520;19.186;2023-09-12T06:02:27;99747.16;;;20.83;74.28
49102;BME280;34913;47.520;19.186;2023-09-12T06:04:52;99756.06;;;21.18;72.24
49102;BME280;34913;47.520;19.186;2023-09-12T06:07:17;99759.97;;;21.70;69.68
49102;BME280;34913;47.520;19.186;2023-09-12T06:09:43;99760.44;;;22.07;68.35
49102;BME280;34913;47.520;19.186;2023-09-12T06:12:08;99762.78;;;22.23;67.69
49102;BME280;34913;47.520;19.186;2023-09-12T06:14:34;99768.78;;;22.18;68.17
49102;BME280;34913;47.520;19.186;2023-09-12T06:16:59;99762.56;;;22.38;66.52
49102;BME280;34913;47.520;19.186;2023-09-12T06:19:25;99765.06;;;22.46;65.86
49102;BME280;34913;47.520;19.186;2023-09-12T06:21:50;99767.97;;;22.44;64.83
49102;BME280;34913;47.520;19.186;2023-09-12T06:24:20;99769.63;;;22.25;64.85
49102;BME280;34913;47.520;19.186;2023-09-12T06:26:49;99774.41;;;22.17;64.22
49102;BME280;34913;47.520;19.186;2023-09-12T06:29:15;99772.34;;;22.52;62.67
49102;BME280;34913;47.520;19.186;2023-09-12T06:31:40;99764.38;;;22.70;62.17
49102;BME280;34913;47.520;19.186;2023-09-12T06:34:09;99778.25;;;23.13;62.04
49102;BME280;34913;47.520;19.186;2023-09-12T06:36:35;99768.88;;;23.61;59.78
49102;BME280;34913;47.520;19.186;2023-09-12T06:39:00;99772.34;;;24.06;60.37
49102;BME280;34913;47.520;19.186;2023-09-12T06:41:27;99771.72;;;24.61;58.87
49102;BME280;34913;47.520;19.186;2023-09-12T06:43:53;99773.84;;;24.77;56.77
49102;BME280;34913;47.520;19.186;2023-09-12T06:46:18;99773.59;;;25.03;56.41
49102;BME280;34913;47.520;19.186;2023-09-12T06:48:45;99764.00;;;25.38;54.20
49102;BME280;34913;47.520;19.186;2023-09-12T06:51:11;99769.31;;;25.14;54.07
49102;BME280;34913;47.520;19.186;2023-09-12T06:53:36;99763.00;;;25.32;54.66
49102;BME280;34913;47.520;19.186;2023-09-12T06:56:03;99767.31;;;25.70;55.32
49102;BME280;34913;47.520;19.186;2023-09-12T06:58:28;99767.38;;;25.81;54.24
49102;BME280;34913;47.520;19.186;2023-09-12T07:00:54;99763.16;;;25.67;52.64
49102;BME280;34913;47.520;19.186;2023-09-12T07:03:19;99765.13;;;25.78;53.44
49102;BME280;34913;47.520;19.186;2023-09-12T07:05:45;99764.41;;;25.83;52.17
49102;BME280;34913;47.520;19.186;2023-09-12T07:08:10;99769.44;;;25.98;52.26
49102;BME280;34913;47.520;19.186;2023-09-12T07:10:36;99773.38;;;26.13;52.50
49102;BME280;34913;47.520;19.186;2023-09-12T07:13:02;99777.16;;;26.12;51.86
49102;BME280;34913;47.520;19.186;2023-09-12T07:15:28;99787.13;;;26.30;51.18
49102;BME280;34913;47.520;19.186;2023-09-12T07:17:53;99776.78;;;26.62;50.60
49102;BME280;34913;47.520;19.186;2023-09-12T07:20:19;99782.09;;;26.69;49.59
49102;BME280;34913;47.520;19.186;2023-09-12T07:22:45;99777.44;;;26.93;50.45
49102;BME280;34913;47.520;19.186;2023-09-12T07:25:13;99781.47;;;27.25;50.16
49102;BME280;34913;47.520;19.186;2023-09-12T07:27:39;99789.91;;;27.52;49.70
49102;BME280;34913;47.520;19.186;2023-09-12T07:30:05;99778.72;;;27.66;51.20
49102;BME280;34913;47.520;19.186;2023-09-12T07:32:31;99781.66;;;27.64;51.43
49102;BME280;34913;47.520;19.186;2023-09-12T07:34:57;99789.03;;;27.75;50.77
49102;BME280;34913;47.520;19.186;2023-09-12T07:37:22;99785.31;;;27.81;49.41
49102;BME280;34913;47.520;19.186;2023-09-12T07:39:48;99787.66;;;28.06;48.96
49102;BME280;34913;47.520;19.186;2023-09-12T07:42:13;99793.34;;;28.33;47.36
49102;BME280;34913;47.520;19.186;2023-09-12T07:44:39;99794.50;;;28.38;48.21
49102;BME280;34913;47.520;19.186;2023-09-12T07:47:04;99792.19;;;28.46;49.34
49102;BME280;34913;47.520;19.186;2023-09-12T07:49:32;99783.66;;;28.43;47.26
49102;BME280;34913;47.520;19.186;2023-09-12T07:51:58;99789.50;;;28.51;46.91
49102;BME280;34913;47.520;19.186;2023-09-12T07:54:23;99785.06;;;28.45;47.70
49102;BME280;34913;47.520;19.186;2023-09-12T07:56:49;99789.50;;;28.51;47.17
49102;BME280;34913;47.520;19.186;2023-09-12T07:59:14;99785.06;;;28.62;47.44
49102;BME280;34913;47.520;19.186;2023-09-12T08:01:40;99777.59;;;28.57;47.46
49102;BME280;34913;47.520;19.186;2023-09-12T08:04:05;99783.16;;;28.62;45.71
49102;BME280;34913;47.520;19.186;2023-09-12T08:06:32;99775.34;;;28.71;46.50
49102;BME280;34913;47.520;19.186;2023-09-12T08:08:58;99770.47;;;28.73;46.96
49102;BME280;34913;47.520;19.186;2023-09-12T08:11:24;99773.13;;;28.68;48.05
49102;BME280;34913;47.520;19.186;2023-09-12T08:13:49;99773.59;;;28.82;46.20
49102;BME280;34913;47.520;19.186;2023-09-12T08:16:16;99776.66;;;28.85;45.67
49102;BME280;34913;47.520;19.186;2023-09-12T08:18:41;99779.47;;;28.90;44.90
49102;BME280;34913;47.520;19.186;2023-09-12T08:21:07;99771.19;;;29.02;45.15
49102;BME280;34913;47.520;19.186;2023-09-12T08:23:33;99780.66;;;29.16;43.13
49102;BME280;34913;47.520;19.186;2023-09-12T08:25:59;99778.16;;;29.15;44.60
49102;BME280;34913;47.520;19.186;2023-09-12T08:28:25;99773.03;;;29.18;44.48
49102;BME280;34913;47.520;19.186;2023-09-12T08:30:50;99780.03;;;29.31;42.02
49102;BME280;34913;47.520;19.186;2023-09-12T08:33:16;99779.25;;;29.14;43.64
49102;BME280;34913;47.520;19.186;2023-09-12T08:35:41;99775.94;;;29.34;42.89
49102;BME280;34913;47.520;19.186;2023-09-12T08:38:07;99787.91;;;29.50;42.48
49102;BME280;34913;47.520;19.186;2023-09-12T08:40:33;99781.50;;;29.39;42.98
49102;BME280;34913;47.520;19.186;2023-09-12T08:43:00;99779.78;;;29.55;41.50
49102;BME280;34913;47.520;19.186;2023-09-12T08:45:26;99784.53;;;29.64;42.20
49102;BME280;34913;47.520;19.186;2023-09-12T08:47:53;99777.19;;;29.70;42.56
49102;BME280;34913;47.520;19.186;2023-09-12T08:50:20;99778.44;;;29.57;41.79
49102;BME280;34913;47.520;19.186;2023-09-12T08:52:47;99777.25;;;29.75;43.10
49102;BME280;34913;47.520;19.186;2023-09-12T08:55:13;99780.25;;;29.73;41.26
49102;BME280;34913;47.520;19.186;2023-09-12T08:57:42;99773.13;;;29.72;42.84
49102;BME280;34913;47.520;19.186;2023-09-12T09:00:08;99767.81;;;29.88;42.48
49102;BME280;34913;47.520;19.186;2023-09-12T09:02:39;99777.09;;;30.14;41.19
49102;BME280;34913;47.520;19.186;2023-09-12T09:05:09;99775.31;;;30.29;41.63
49102;BME280;34913;47.520;19.186;2023-09-12T09:07:36;99768.94;;;30.19;41.39
49102;BME280;34913;47.520;19.186;2023-09-12T09:10:04;99772.59;;;30.29;42.65
49102;BME280;34913;47.520;19.186;2023-09-12T09:12:31;99768.81;;;30.41;42.24
49102;BME280;34913;47.520;19.186;2023-09-12T09:14:56;99761.84;;;30.60;39.03
49102;BME280;34913;47.520;19.186;2023-09-12T09:17:23;99768.78;;;30.73;39.96
49102;BME280;34913;47.520;19.186;2023-09-12T09:19:48;99774.38;;;30.83;39.90
49102;BME280;34913;47.520;19.186;2023-09-12T09:22:14;99761.47;;;30.83;40.13
49102;BME280;34913;47.520;19.186;2023-09-12T09:24:39;99770.50;;;30.79;39.44
49102;BME280;34913;47.520;19.186;2023-09-12T09:27:05;99768.88;;;30.83;39.31
49102;BME280;34913;47.520;19.186;2023-09-12T09:29:30;99769.19;;;30.92;37.81
49102;BME280;34913;47.520;19.186;2023-09-12T09:32:00;99765.84;;;30.79;39.07
49102;BME280;34913;47.520;19.186;2023-09-12T09:34:27;99764.50;;;30.82;40.62
49102;BME280;34913;47.520;19.186;2023-09-12T09:36:56;99769.72;;;30.89;39.91
49102;BME280;34913;47.520;19.186;2023-09-12T09:39:27;99755.97;;;30.78;38.30
49102;BME280;34913;47.520;19.186;2023-09-12T09:41:55;99767.31;;;31.02;38.43
49102;BME280;34913;47.520;19.186;2023-09-12T09:44:23;99762.47;;;31.15;38.02
49102;BME280;34913;47.520;19.186;2023-09-12T09:46:54;99765.06;;;31.36;36.22
49102;BME280;34913;47.520;19.186;2023-09-12T09:49:20;99757.34;;;31.33;37.82
49102;BME280;34913;47.520;19.186;2023-09-12T09:51:46;99755.16;;;31.30;38.49
49102;BME280;34913;47.520;19.186;2023-09-12T09:54:12;99759.00;;;31.34;35.47
49102;BME280;34913;47.520;19.186;2023-09-12T09:57:07;99758.22;;;31.49;34.63
49102;BME280;34913;47.520;19.186;2023-09-12T09:59:33;99768.13;;;31.65;35.96
49102;BME280;34913;47.520;19.186;2023-09-12T10:01:59;99764.88;;;31.68;35.38
49102;BME280;34913;47.520;19.186;2023-09-12T10:04:28;99755.50;;;31.64;35.47
49102;BME280;34913;47.520;19.186;2023-09-12T10:06:58;99762.75;;;32.01;34.23
49102;BME280;34913;47.520;19.186;2023-09-12T10:09:27;99755.31;;;32.02;34.15
49102;BME280;34913;47.520;19.186;2023-09-12T10:11:55;99755.88;;;32.19;33.79
49102;BME280;34913;47.520;19.186;2023-09-12T10:14:22;99750.94;;;32.16;35.30
49102;BME280;34913;47.520;19.186;2023-09-12T10:16:48;99756.41;;;32.21;34.06
49102;BME280;34913;47.520;19.186;2023-09-12T10:19:24;99755.88;;;32.44;33.39
49102;BME280;34913;47.520;19.186;2023-09-12T10:24:36;99754.50;;;32.52;31.18
49102;BME280;34913;47.520;19.186;2023-09-12T10:27:06;99752.31;;;32.03;31.26
49102;BME280;34913;47.520;19.186;2023-09-12T10:29:39;99751.75;;;32.16;33.11
49102;BME280;34913;47.520;19.186;2023-09-12T10:32:08;99744.09;;;32.34;30.96
49102;BME280;34913;47.520;19.186;2023-09-12T10:34:36;99754.22;;;32.38;31.29
49102;BME280;34913;47.520;19.186;2023-09-12T10:37:03;99741.63;;;32.32;33.03
49102;BME280;34913;47.520;19.186;2023-09-12T10:39:32;99742.97;;;32.25;34.52
49102;BME280;34913;47.520;19.186;2023-09-12T10:41:58;99735.53;;;32.30;32.08
49102;BME280;34913;47.520;19.186;2023-09-12T10:44:25;99736.09;;;32.37;33.12
49102;BME280;34913;47.520;19.186;2023-09-12T10:46:51;99740.50;;;32.48;32.09
49102;BME280;34913;47.520;19.186;2023-09-12T10:49:18;99734.44;;;32.52;31.87
49102;BME280;34913;47.520;19.186;2023-09-12T10:51:45;99742.69;;;32.52;31.55
49102;BME280;34913;47.520;19.186;2023-09-12T10:54:35;99739.66;;;32.58;31.68
49102;BME280;34913;47.520;19.186;2023-09-12T10:57:04;99736.63;;;32.60;32.10
49102;BME280;34913;47.520;19.186;2023-09-12T10:59:30;99733.38;;;32.42;30.40
49102;BME280;34913;47.520;19.186;2023-09-12T11:02:29;99729.47;;;32.54;30.37
49102;BME280;34913;47.520;19.186;2023-09-12T11:04:55;99733.59;;;32.61;31.46
49102;BME280;34913;47.520;19.186;2023-09-12T11:07:44;99736.06;;;32.68;30.37
49102;BME280;34913;47.520;19.186;2023-09-12T11:12:40;99734.66;;;32.70;31.20
49102;BME280;34913;47.520;19.186;2023-09-12T11:15:07;99728.63;;;32.68;29.59
49102;BME280;34913;47.520;19.186;2023-09-12T11:17:48;99727.56;;;32.64;30.68
49102;BME280;34913;47.520;19.186;2023-09-12T11:20:15;99712.44;;;32.67;31.34
49102;BME280;34913;47.520;19.186;2023-09-12T11:22:45;99729.22;;;32.50;30.76
49102;BME280;34913;47.520;19.186;2023-09-12T11:25:23;99722.06;;;32.29;30.81
49102;BME280;34913;47.520;19.186;2023-09-12T11:30:18;99714.66;;;32.29;31.79
49102;BME280;34913;47.520;19.186;2023-09-12T11:32:46;99714.97;;;32.48;30.80
49102;BME280;34913;47.520;19.186;2023-09-12T11:35:13;99705.03;;;32.57;30.07
49102;BME280;34913;47.520;19.186;2023-09-12T11:37:38;99697.34;;;32.29;30.17
49102;BME280;34913;47.520;19.186;2023-09-12T11:42:58;99691.59;;;32.50;31.66
49102;BME280;34913;47.520;19.186;2023-09-12T11:45:24;99687.44;;;32.53;30.74
49102;BME280;34913;47.520;19.186;2023-09-12T11:47:50;99692.38;;;32.61;30.80
49102;BME280;34913;47.520;19.186;2023-09-12T11:50:34;99694.59;;;32.64;30.75
49102;BME280;34913;47.520;19.186;2023-09-12T11:53:06;99688.56;;;32.57;29.60
49102;BME280;34913;47.520;19.186;2023-09-12T11:55:46;99694.59;;;32.54;29.83
49102;BME280;34913;47.520;19.186;2023-09-12T11:58:16;99689.66;;;32.51;31.06
49102;BME280;34913;47.520;19.186;2023-09-12T12:00:52;99686.91;;;32.46;29.14
49102;BME280;34913;47.520;19.186;2023-09-12T12:03:23;99686.91;;;32.46;31.43
49102;BME280;34913;47.520;19.186;2023-09-12T12:05:50;99686.63;;;32.53;30.46
49102;BME280;34913;47.520;19.186;2023-09-12T12:08:17;99680.34;;;32.47;31.25
49102;BME280;34913;47.520;19.186;2023-09-12T12:10:42;99677.28;;;32.59;31.23
49102;BME280;34913;47.520;19.186;2023-09-12T12:13:15;99667.38;;;32.58;31.93
49102;BME280;34913;47.520;19.186;2023-09-12T12:15:41;99677.53;;;32.62;31.54
49102;BME280;34913;47.520;19.186;2023-09-12T12:18:07;99667.91;;;32.65;30.64
49102;BME280;34913;47.520;19.186;2023-09-12T12:20:32;99675.59;;;32.73;28.92
49102;BME280;34913;47.520;19.186;2023-09-12T12:22:58;99665.41;;;32.78;28.70
49102;BME280;34913;47.520;19.186;2023-09-12T12:25:23;99667.09;;;32.64;31.33
49102;BME280;34913;47.520;19.186;2023-09-12T12:27:49;99666.28;;;32.64;30.76
49102;BME280;34913;47.520;19.186;2023-09-12T12:30:14;99669.56;;;32.66;30.71
49102;BME280;34913;47.520;19.186;2023-09-12T12:32:45;99668.50;;;32.57;29.77
49102;BME280;34913;47.520;19.186;2023-09-12T12:35:21;99668.50;;;32.57;29.21
49102;BME280;34913;47.520;19.186;2023-09-12T12:37:51;99665.47;;;32.53;29.66
49102;BME280;34913;47.520;19.186;2023-09-12T12:40:17;99656.41;;;32.53;29.45
49102;BME280;34913;47.520;19.186;2023-09-12T12:42:43;99658.38;;;32.47;30.29
49102;BME280;34913;47.520;19.186;2023-09-12T12:45:13;99645.75;;;32.36;31.17
49102;BME280;34913;47.520;19.186;2023-09-12T12:47:39;99649.84;;;32.43;30.22
49102;BME280;34913;47.520;19.186;2023-09-12T12:50:14;99647.09;;;32.48;30.78
49102;BME280;34913;47.520;19.186;2023-09-12T12:52:41;99641.09;;;32.31;29.44
49102;BME280;34913;47.520;19.186;2023-09-12T12:55:09;99637.50;;;32.26;30.38
49102;BME280;34913;47.520;19.186;2023-09-12T12:57:36;99639.97;;;32.37;28.46
49102;BME280;34913;47.520;19.186;2023-09-12T13:00:06;99641.88;;;32.37;29.48
49102;BME280;34913;47.520;19.186;2023-09-12T13:02:31;99631.75;;;32.32;28.42